Back to Top

Language: 

My Weather Underground Personal Weather Station Historical Data with Graphs...

Delerius Weather Station Historical Data
Daily Summary for December 30, 2017 Units:  English    Metric   Both
« Previous Day
Next Day »
Daily Weekly Monthly Yearly Custom
  High: Low: Average:
Temperature: 50.2 °F 34.3 °F 43.8 °F
Dew Point: 45.5 °F 32.9 °F 39.3 °F
Humidity: 98 % 73 % 85 %
Wind Speed: 26.0 mph 0.0 mph 9.5 mph
Wind Gust: 39.0 mph - -
Wind:- - SW
Pressure: 29.44 in 29.10 in -
Precipitation: 0.20 in    
Historical Graphs
 
 
Tabular Data for December 30, 2017
Time Temperature Dew Point Pressure Wind Wind Speed Wind Gust Humidity Rainfall Rate (Hourly) solar Conditions
00:04 40.1 °F 35.0 °F 29.30 in SSE 5.0 mph 7.0 mph 82 % 0.00 in 0 W/m2
00:05 40.1 °F 35.0 °F 29.30 in SSE 5.0 mph 7.0 mph 82 % 0.00 in 0 W/m2
00:10 39.9 °F 34.9 °F 29.29 in South 9.0 mph 14.0 mph 82 % 0.00 in 0 W/m2
00:14 40.1 °F 35.0 °F 29.29 in SSW 7.0 mph 12.0 mph 82 % 0.00 in 0 W/m2
00:16 40.1 °F 35.0 °F 29.28 in SSW 8.0 mph 14.0 mph 82 % 0.00 in 0 W/m2
00:21 40.3 °F 35.2 °F 29.28 in SSW 5.0 mph 9.0 mph 82 % 0.00 in 0 W/m2
00:26 40.3 °F 35.2 °F 29.28 in SW 2.0 mph 5.0 mph 82 % 0.00 in 0 W/m2
00:27 40.3 °F 35.2 °F 29.28 in SSW 3.0 mph 5.0 mph 82 % 0.00 in 0 W/m2
00:32 40.3 °F 35.5 °F 29.28 in South 3.0 mph 7.0 mph 83 % 0.00 in 0 W/m2
00:34 40.3 °F 35.5 °F 29.28 in South 3.0 mph 6.0 mph 83 % 0.00 in 0 W/m2
00:39 40.3 °F 35.5 °F 29.28 in South 5.0 mph 8.0 mph 83 % 0.00 in 0 W/m2
00:41 40.3 °F 35.5 °F 29.28 in SSE 4.0 mph 7.0 mph 83 % 0.00 in 0 W/m2
00:45 40.3 °F 35.2 °F 29.28 in SSE 5.0 mph 8.0 mph 82 % 0.00 in 0 W/m2
00:48 40.3 °F 35.2 °F 29.28 in South 3.0 mph 7.0 mph 82 % 0.00 in 0 W/m2
00:53 40.3 °F 35.2 °F 29.27 in South 1.0 mph 2.0 mph 82 % 0.00 in 0 W/m2
00:54 40.3 °F 35.2 °F 29.27 in Calm   1.0 mph 82 % 0.00 in 0 W/m2
00:59 40.3 °F 35.2 °F 29.27 in Calm     82 % 0.00 in 0 W/m2
01:04 40.3 °F 35.2 °F 29.26 in ESE 1.0 mph 2.0 mph 82 % 0.00 in 0 W/m2
01:09 40.5 °F 35.4 °F 29.26 in ESE 1.0 mph 4.0 mph 82 % 0.00 in 0 W/m2
01:14 40.5 °F 35.1 °F 29.27 in SSE 2.0 mph 4.0 mph 81 % 0.00 in 0 W/m2
01:16 40.5 °F 35.1 °F 29.27 in SE 3.0 mph 5.0 mph 81 % 0.00 in 0 W/m2
01:21 40.5 °F 35.4 °F 29.27 in SE 2.0 mph 5.0 mph 82 % 0.00 in 0 W/m2
01:22 40.5 °F 35.4 °F 29.27 in SE 3.0 mph 5.0 mph 82 % 0.00 in 0 W/m2
01:26 40.5 °F 35.4 °F 29.27 in ESE 4.0 mph 6.0 mph 82 % 0.00 in 0 W/m2
01:31 40.3 °F 35.5 °F 29.27 in SE 4.0 mph 7.0 mph 83 % 0.00 in 0 W/m2
01:36 39.9 °F 35.5 °F 29.27 in SE 5.0 mph 7.0 mph 84 % 0.01 in 0 W/m2
01:38 39.9 °F 35.5 °F 29.27 in SE 6.0 mph 7.0 mph 84 % 0.01 in 0 W/m2
01:43 39.7 °F 35.6 °F 29.26 in SSE 4.0 mph 8.0 mph 85 % 0.02 in 0 W/m2
01:44 39.7 °F 35.6 °F 29.26 in SSE 5.0 mph 9.0 mph 85 % 0.02 in 0 W/m2
01:49 39.6 °F 35.7 °F 29.25 in SSE 5.0 mph 7.0 mph 86 % 0.02 in 0 W/m2
01:53 39.4 °F 35.8 °F 29.24 in SSE 4.0 mph 8.0 mph 87 % 0.02 in 0 W/m2
01:58 39.0 °F 35.5 °F 29.23 in SE 6.0 mph 9.0 mph 87 % 0.03 in 0 W/m2
02:03 38.7 °F 35.4 °F 29.23 in SE 5.0 mph 9.0 mph 88 % 0.04 in 0 W/m2
02:08 38.3 °F 35.3 °F 29.24 in SSE 5.0 mph 8.0 mph 89 % 0.04 in 0 W/m2
02:09 38.3 °F 35.3 °F 29.24 in SSE 5.0 mph 8.0 mph 89 % 0.05 in 0 W/m2
02:14 38.1 °F 35.2 °F 29.23 in South 2.0 mph 5.0 mph 89 % 0.05 in 0 W/m2
02:19 37.9 °F 35.3 °F 29.22 in SSE 3.0 mph 5.0 mph 90 % 0.06 in 0 W/m2
02:20 37.9 °F 35.3 °F 29.22 in SSE 3.0 mph 5.0 mph 90 % 0.06 in 0 W/m2
02:24 37.8 °F 35.1 °F 29.22 in SSE 5.0 mph 10.0 mph 90 % 0.06 in 0 W/m2
02:25 37.8 °F 35.1 °F 29.22 in SSE 6.0 mph 10.0 mph 90 % 0.06 in 0 W/m2
02:30 37.4 °F 35.0 °F 29.21 in SSE 6.0 mph 9.0 mph 91 % 0.07 in 0 W/m2
02:31 37.2 °F 34.8 °F 29.21 in SSE 6.0 mph 10.0 mph 91 % 0.08 in 0 W/m2
02:32 37.2 °F 34.8 °F 29.21 in SSE 6.0 mph 10.0 mph 91 % 0.08 in 0 W/m2
02:37 37.0 °F 34.7 °F 29.21 in SSE 5.0 mph 8.0 mph 91 % 0.09 in 0 W/m2
02:38 37.0 °F 34.7 °F 29.21 in SSE 4.0 mph 8.0 mph 91 % 0.09 in 0 W/m2
02:43 36.9 °F 34.8 °F 29.20 in ESE 5.0 mph 7.0 mph 92 % 0.09 in 0 W/m2
02:45 36.9 °F 34.8 °F 29.19 in ESE 4.0 mph 6.0 mph 92 % 0.09 in 0 W/m2
02:50 36.7 °F 34.6 °F 29.20 in SE 5.0 mph 8.0 mph 92 % 0.09 in 0 W/m2
02:51 36.7 °F 34.6 °F 29.20 in SE 6.0 mph 9.0 mph 92 % 0.10 in 0 W/m2
02:54 36.5 °F 34.4 °F 29.19 in SE 4.0 mph 6.0 mph 92 % 0.10 in 0 W/m2
02:57 36.3 °F 34.2 °F 29.19 in SE 6.0 mph 12.0 mph 92 % 0.11 in 0 W/m2
03:02 36.1 °F 34.3 °F 29.18 in SE 6.0 mph 9.0 mph 93 % 0.11 in 0 W/m2
03:03 36.1 °F 34.3 °F 29.18 in SE 7.0 mph 9.0 mph 93 % 0.12 in 0 W/m2
03:08 36.0 °F 34.1 °F 29.17 in SE 8.0 mph 14.0 mph 93 % 0.12 in 0 W/m2
03:09 35.8 °F 34.0 °F 29.17 in SE 6.0 mph 14.0 mph 93 % 0.11 in 0 W/m2
03:14 35.6 °F 33.8 °F 29.17 in SE 6.0 mph 9.0 mph 93 % 0.12 in 0 W/m2
03:17 35.2 °F 33.4 °F 29.17 in SE 7.0 mph 9.0 mph 93 % 0.11 in 0 W/m2
03:23 35.1 °F 33.2 °F 29.17 in SE 8.0 mph 10.0 mph 93 % 0.10 in 0 W/m2
03:28 34.7 °F 32.9 °F 29.16 in SE 6.0 mph 9.0 mph 93 % 0.10 in 0 W/m2
03:29 34.7 °F 32.9 °F 29.16 in SE 6.0 mph 9.0 mph 93 % 0.10 in 0 W/m2
03:34 34.5 °F 33.0 °F 29.16 in SSE 7.0 mph 11.0 mph 94 % 0.09 in 0 W/m2
03:35 34.5 °F 33.0 °F 29.16 in SSE 8.0 mph 12.0 mph 94 % 0.09 in 0 W/m2
03:40 34.5 °F 33.0 °F 29.15 in SSE 7.0 mph 11.0 mph 94 % 0.08 in 0 W/m2
03:41 34.5 °F 33.0 °F 29.15 in SSE 8.0 mph 11.0 mph 94 % 0.08 in 0 W/m2
03:46 34.5 °F 33.0 °F 29.15 in SSE 8.0 mph 14.0 mph 94 % 0.06 in 0 W/m2
03:47 34.5 °F 33.0 °F 29.15 in SSE 7.0 mph 14.0 mph 94 % 0.06 in 0 W/m2
03:52 34.5 °F 33.0 °F 29.14 in SE 7.0 mph 10.0 mph 94 % 0.05 in 0 W/m2
03:57 34.5 °F 33.2 °F 29.14 in SSE 7.0 mph 10.0 mph 95 % 0.04 in 0 W/m2
04:02 34.7 °F 33.4 °F 29.13 in SSE 7.0 mph 10.0 mph 95 % 0.02 in 0 W/m2
04:03 34.7 °F 33.4 °F 29.14 in SSE 6.0 mph 9.0 mph 95 % 0.02 in 0 W/m2
04:08 34.7 °F 33.4 °F 29.13 in SE 7.0 mph 12.0 mph 95 % 0.02 in 0 W/m2
04:09 34.7 °F 33.4 °F 29.13 in SE 7.0 mph 12.0 mph 95 % 0.02 in 0 W/m2
04:14 34.9 °F 33.6 °F 29.13 in SSE 8.0 mph 11.0 mph 95 % 0.02 in 0 W/m2
04:17 34.9 °F 33.6 °F 29.12 in SE 8.0 mph 11.0 mph 95 % 0.02 in 0 W/m2
04:19 34.9 °F 33.6 °F 29.12 in SE 8.0 mph 11.0 mph 95 % 0.02 in 0 W/m2
04:24 34.9 °F 33.6 °F 29.12 in SE 5.0 mph 7.0 mph 95 % 0.01 in 0 W/m2
04:26 34.9 °F 33.6 °F 29.12 in SE 4.0 mph 7.0 mph 95 % 0.01 in 0 W/m2
04:31 35.1 °F 33.8 °F 29.12 in ESE 1.0 mph 3.0 mph 95 % 0.02 in 0 W/m2
04:36 35.1 °F 33.8 °F 29.12 in SSE 2.0 mph 5.0 mph 95 % 0.02 in 0 W/m2
04:37 35.1 °F 33.8 °F 29.12 in SSE 1.0 mph 4.0 mph 95 % 0.02 in 0 W/m2
04:42 35.1 °F 33.8 °F 29.12 in SE 2.0 mph 5.0 mph 95 % 0.02 in 0 W/m2
04:44 35.1 °F 33.8 °F 29.12 in SE 3.0 mph 6.0 mph 95 % 0.02 in 0 W/m2
04:48 35.2 °F 34.2 °F 29.12 in SE 2.0 mph 5.0 mph 96 % 0.02 in 0 W/m2
04:50 35.2 °F 34.2 °F 29.11 in SE 1.0 mph 3.0 mph 96 % 0.02 in 0 W/m2
04:55 35.2 °F 34.2 °F 29.11 in SE 2.0 mph 5.0 mph 96 % 0.01 in 0 W/m2
05:00 35.2 °F 34.2 °F 29.11 in Calm     96 % 0.01 in 0 W/m2
05:05 35.2 °F 34.2 °F 29.11 in Calm   2.0 mph 96 % 0.02 in 0 W/m2
05:07 35.2 °F 34.2 °F 29.11 in Calm   1.0 mph 96 % 0.02 in 0 W/m2
05:09 35.2 °F 34.2 °F 29.11 in SSE 1.0 mph 4.0 mph 96 % 0.02 in 0 W/m2
05:14 35.4 °F 34.4 °F 29.11 in Calm   1.0 mph 96 % 0.02 in 0 W/m2
05:16 35.4 °F 34.4 °F 29.10 in Calm     96 % 0.02 in 0 W/m2
05:17 35.4 °F 34.4 °F 29.11 in Calm     96 % 0.02 in 0 W/m2
05:22 35.4 °F 34.4 °F 29.11 in Calm     96 % 0.02 in 0 W/m2
05:26 35.4 °F 34.4 °F 29.11 in Calm     96 % 0.02 in 0 W/m2
05:31 35.4 °F 34.4 °F 29.11 in Calm     96 % 0.01 in 0 W/m2
05:35 35.6 °F 34.6 °F 29.11 in Calm     96 % 0.01 in 0 W/m2
05:38 35.6 °F 34.6 °F 29.11 in Calm     96 % 0.01 in 0 W/m2
05:42 35.6 °F 34.6 °F 29.11 in Calm     96 % 0.01 in 0 W/m2
05:44 35.6 °F 34.6 °F 29.11 in Calm     96 % 0.01 in 0 W/m2
05:49 35.8 °F 34.8 °F 29.11 in Calm     96 % 0.01 in 0 W/m2
05:53 35.8 °F 34.8 °F 29.10 in Calm   1.0 mph 96 % 0.01 in 0 W/m2
05:56 35.8 °F 34.8 °F 29.11 in Calm     96 % 0.01 in 0 W/m2
06:01 35.8 °F 34.8 °F 29.11 in East 1.0 mph 2.0 mph 96 % 0.00 in 0 W/m2
06:02 35.8 °F 34.8 °F 29.11 in East 1.0 mph 2.0 mph 96 % 0.00 in 0 W/m2
06:07 35.8 °F 34.8 °F 29.10 in Calm   1.0 mph 96 % 0.00 in 0 W/m2
06:12 35.8 °F 34.8 °F 29.10 in East 1.0 mph 4.0 mph 96 % 0.00 in 0 W/m2
06:13 35.8 °F 34.8 °F 29.10 in Calm   2.0 mph 96 % 0.00 in 0 W/m2
06:18 35.8 °F 34.8 °F 29.10 in Calm   2.0 mph 96 % 0.00 in 0 W/m2
06:19 35.8 °F 34.8 °F 29.10 in East 1.0 mph 2.0 mph 96 % 0.00 in 0 W/m2
06:24 35.8 °F 34.8 °F 29.10 in Calm   2.0 mph 96 % 0.00 in 0 W/m2
06:25 35.8 °F 34.8 °F 29.10 in Calm   2.0 mph 96 % 0.00 in 0 W/m2
06:29 35.8 °F 34.8 °F 29.10 in Calm   1.0 mph 96 % 0.01 in 0 W/m2
06:31 35.8 °F 34.8 °F 29.10 in Calm     96 % 0.01 in 0 W/m2
06:36 35.6 °F 34.6 °F 29.10 in Calm   1.0 mph 96 % 0.01 in 0 W/m2
06:39 35.6 °F 34.6 °F 29.10 in Calm   2.0 mph 96 % 0.01 in 0 W/m2
06:40 35.6 °F 34.6 °F 29.10 in Calm   2.0 mph 96 % 0.01 in 0 W/m2
06:45 35.4 °F 34.4 °F 29.10 in Calm     96 % 0.01 in 0 W/m2
06:50 35.4 °F 34.4 °F 29.10 in Calm     96 % 0.01 in 0 W/m2
06:51 35.4 °F 34.4 °F 29.10 in Calm     96 % 0.01 in 0 W/m2
06:56 35.2 °F 34.2 °F 29.11 in Calm     96 % 0.01 in 0 W/m2
07:01 35.1 °F 34.0 °F 29.11 in Calm     96 % 0.01 in 0 W/m2
07:03 35.1 °F 34.0 °F 29.11 in Calm     96 % 0.01 in 0 W/m2
07:08 34.9 °F 33.9 °F 29.11 in Calm     96 % 0.01 in 0 W/m2
07:11 34.9 °F 33.9 °F 29.11 in Calm     96 % 0.01 in 0 W/m2
07:14 34.9 °F 33.9 °F 29.11 in Calm     96 % 0.01 in 0 W/m2
07:19 34.7 °F 33.7 °F 29.11 in Calm     96 % 0.01 in 0 W/m2
07:20 34.7 °F 33.7 °F 29.11 in Calm     96 % 0.01 in 0 W/m2
07:25 34.5 °F 33.5 °F 29.11 in Calm     96 % 0.00 in 0 W/m2
07:26 34.5 °F 33.5 °F 29.11 in Calm     96 % 0.00 in 0 W/m2
07:29 34.3 °F 33.3 °F 29.11 in Calm     96 % 0.00 in 0 W/m2
07:31 34.3 °F 33.3 °F 29.11 in Calm     96 % 0.00 in 0 W/m2
07:36 34.3 °F 33.3 °F 29.11 in WSW 1.0 mph 5.0 mph 96 % 0.00 in 0 W/m2
07:41 34.9 °F 33.9 °F 29.11 in West 6.0 mph 9.0 mph 96 % 0.00 in 0 W/m2
07:42 35.1 °F 34.0 °F 29.11 in West 7.0 mph 9.0 mph 96 % 0.00 in 0 W/m2
07:46 36.5 °F 35.7 °F 29.12 in West 6.0 mph 10.0 mph 97 % 0.00 in 0 W/m2
07:48 37.6 °F 36.8 °F 29.12 in West 8.0 mph 13.0 mph 97 % 0.00 in 0 W/m2
07:53 40.3 °F 39.5 °F 29.12 in West 9.0 mph 13.0 mph 97 % 0.00 in 0 W/m2
07:54 40.5 °F 39.7 °F 29.12 in West 9.0 mph 16.0 mph 97 % 0.00 in 0 W/m2
07:59 42.1 °F 41.6 °F 29.12 in West 10.0 mph 15.0 mph 98 % 0.00 in 0 W/m2
08:00 42.1 °F 41.6 °F 29.12 in West 10.0 mph 15.0 mph 98 % 0.00 in 0 W/m2
08:01 42.3 °F 41.7 °F 29.12 in West 10.0 mph 15.0 mph 98 % 0.00 in 0 W/m2
08:05 42.6 °F 42.1 °F 29.13 in West 11.0 mph 18.0 mph 98 % 0.00 in 0 W/m2
08:08 42.8 °F 42.3 °F 29.13 in WNW 13.0 mph 23.0 mph 98 % 0.00 in 0 W/m2
08:13 43.2 °F 42.6 °F 29.13 in West 13.0 mph 20.0 mph 98 % 0.00 in 0 W/m2
08:16 43.2 °F 42.6 °F 29.13 in WNW 13.0 mph 21.0 mph 98 % 0.00 in 0 W/m2
08:17 43.2 °F 42.6 °F 29.13 in WNW 12.0 mph 21.0 mph 98 % 0.00 in 0 W/m2
08:22 43.3 °F 42.8 °F 29.14 in WNW 11.0 mph 16.0 mph 98 % 0.00 in 0 W/m2
08:27 43.5 °F 42.7 °F 29.14 in WNW 12.0 mph 20.0 mph 97 % 0.00 in 5 W/m2
08:28 43.3 °F 42.5 °F 29.14 in WNW 12.0 mph 20.0 mph 97 % 0.00 in 5 W/m2
08:33 43.3 °F 42.5 °F 29.14 in West 11.0 mph 18.0 mph 97 % 0.00 in 5 W/m2
08:38 43.5 °F 42.7 °F 29.15 in West 15.0 mph 23.0 mph 97 % 0.00 in 7 W/m2
08:39 43.5 °F 42.7 °F 29.15 in West 15.0 mph 23.0 mph 97 % 0.00 in 7 W/m2
08:40 43.7 °F 42.9 °F 29.15 in West 15.0 mph 23.0 mph 97 % 0.00 in 7 W/m2
08:45 43.7 °F 42.9 °F 29.15 in West 13.0 mph 23.0 mph 97 % 0.00 in 9 W/m2
08:46 43.7 °F 42.9 °F 29.15 in West 14.0 mph 26.0 mph 97 % 0.00 in 9 W/m2
08:51 43.7 °F 42.6 °F 29.15 in West 14.0 mph 23.0 mph 96 % 0.00 in 11 W/m2
08:56 43.9 °F 42.8 °F 29.15 in West 19.0 mph 26.0 mph 96 % 0.00 in 14 W/m2
08:58 44.1 °F 43.0 °F 29.15 in West 18.0 mph 28.0 mph 96 % 0.00 in 18 W/m2
09:02 44.4 °F 43.4 °F 29.15 in West 23.0 mph 34.0 mph 96 % 0.00 in 19 W/m2
09:07 44.8 °F 43.4 °F 29.15 in West 19.0 mph 31.0 mph 95 % 0.00 in 19 W/m2
09:08 44.8 °F 43.4 °F 29.15 in West 19.0 mph 31.0 mph 95 % 0.00 in 19 W/m2
09:13 45.1 °F 43.8 °F 29.16 in West 22.0 mph 34.0 mph 95 % 0.00 in 26 W/m2
09:14 45.1 °F 43.8 °F 29.15 in West 22.0 mph 38.0 mph 95 % 0.00 in 28 W/m2
09:16 45.3 °F 43.7 °F 29.16 in West 22.0 mph 38.0 mph 94 % 0.00 in 26 W/m2
09:20 45.5 °F 43.6 °F 29.16 in West 22.0 mph 34.0 mph 93 % 0.00 in 25 W/m2
09:23 45.7 °F 43.8 °F 29.17 in West 23.0 mph 32.0 mph 93 % 0.00 in 26 W/m2
09:27 46.0 °F 43.8 °F 29.16 in West 23.0 mph 35.0 mph 92 % 0.00 in 28 W/m2
09:32 46.0 °F 43.6 °F 29.17 in West 22.0 mph 32.0 mph 91 % 0.00 in 98 W/m2
09:36 46.2 °F 43.4 °F 29.18 in West 20.0 mph 31.0 mph 90 % 0.00 in 67 W/m2
09:39 46.2 °F 43.4 °F 29.18 in West 22.0 mph 36.0 mph 90 % 0.00 in 104 W/m2
09:42 46.2 °F 43.4 °F 29.18 in West 21.0 mph 35.0 mph 90 % 0.00 in 93 W/m2
09:45 46.4 °F 43.6 °F 29.18 in West 24.0 mph 35.0 mph 90 % 0.00 in 88 W/m2
09:48 46.6 °F 43.5 °F 29.18 in West 26.0 mph 39.0 mph 89 % 0.00 in 127 W/m2
09:53 46.8 °F 43.4 °F 29.19 in West 23.0 mph 35.0 mph 88 % 0.00 in 125 W/m2
09:55 46.9 °F 43.6 °F 29.19 in West 21.0 mph 32.0 mph 88 % 0.00 in 132 W/m2
10:00 46.8 °F 43.7 °F 29.20 in West 23.0 mph 34.0 mph 89 % 0.00 in 95 W/m2
10:01 46.8 °F 43.7 °F 29.20 in West 21.0 mph 31.0 mph 89 % 0.00 in 102 W/m2
10:02 46.8 °F 43.7 °F 29.20 in West 21.0 mph 30.0 mph 89 % 0.00 in 146 W/m2
10:07 46.6 °F 43.5 °F 29.21 in West 22.0 mph 33.0 mph 89 % 0.00 in 32 W/m2
10:09 46.6 °F 43.5 °F 29.20 in West 19.0 mph 30.0 mph 89 % 0.00 in 42 W/m2
10:12 46.2 °F 43.4 °F 29.21 in West 19.0 mph 29.0 mph 90 % 0.00 in 58 W/m2
10:14 46.2 °F 43.4 °F 29.21 in West 22.0 mph 39.0 mph 90 % 0.00 in 70 W/m2
10:17 46.0 °F 43.3 °F 29.21 in West 17.0 mph 30.0 mph 90 % 0.00 in 70 W/m2
10:22 46.0 °F 43.3 °F 29.22 in West 19.0 mph 28.0 mph 90 % 0.00 in 76 W/m2
10:26 46.0 °F 43.3 °F 29.22 in West 19.0 mph 30.0 mph 90 % 0.00 in 93 W/m2
10:31 46.0 °F 43.3 °F 29.23 in West 20.0 mph 29.0 mph 90 % 0.00 in 72 W/m2
10:32 46.0 °F 43.3 °F 29.23 in West 19.0 mph 29.0 mph 90 % 0.00 in 72 W/m2
10:37 46.0 °F 43.3 °F 29.23 in West 21.0 mph 30.0 mph 90 % 0.00 in 83 W/m2
10:39 46.0 °F 43.3 °F 29.22 in West 17.0 mph 29.0 mph 90 % 0.00 in 81 W/m2
10:45 46.0 °F 43.6 °F 29.23 in West 16.0 mph 25.0 mph 91 % 0.00 in 114 W/m2
10:50 46.0 °F 43.6 °F 29.24 in West 15.0 mph 25.0 mph 91 % 0.00 in 113 W/m2
10:52 45.9 °F 43.4 °F 29.24 in West 17.0 mph 25.0 mph 91 % 0.00 in 109 W/m2
10:57 46.0 °F 43.6 °F 29.24 in West 14.0 mph 23.0 mph 91 % 0.00 in 153 W/m2
11:01 46.0 °F 43.6 °F 29.24 in West 14.0 mph 23.0 mph 91 % 0.00 in 132 W/m2
11:03 46.0 °F 43.6 °F 29.24 in West 15.0 mph 22.0 mph 91 % 0.00 in 134 W/m2
11:07 46.2 °F 43.7 °F 29.25 in West 15.0 mph 22.0 mph 91 % 0.00 in 134 W/m2
11:08 46.2 °F 43.7 °F 29.24 in West 14.0 mph 22.0 mph 91 % 0.00 in 134 W/m2
11:12 46.4 °F 43.9 °F 29.24 in West 14.0 mph 25.0 mph 91 % 0.00 in 329 W/m2
11:17 46.6 °F 44.1 °F 29.24 in WSW 13.0 mph 20.0 mph 91 % 0.00 in 128 W/m2
11:19 46.6 °F 44.1 °F 29.24 in WSW 13.0 mph 20.0 mph 91 % 0.00 in 153 W/m2
11:21 46.6 °F 44.1 °F 29.24 in West 12.0 mph 18.0 mph 91 % 0.00 in 100 W/m2
11:26 46.8 °F 44.3 °F 29.24 in WSW 13.0 mph 22.0 mph 91 % 0.00 in 118 W/m2
11:27 46.8 °F 44.3 °F 29.25 in WSW 14.0 mph 22.0 mph 91 % 0.00 in 142 W/m2
11:28 46.8 °F 44.3 °F 29.25 in WSW 14.0 mph 23.0 mph 91 % 0.00 in 97 W/m2
11:32 46.8 °F 44.3 °F 29.25 in West 15.0 mph 24.0 mph 91 % 0.00 in 118 W/m2
11:36 46.8 °F 44.3 °F 29.24 in WSW 12.0 mph 21.0 mph 91 % 0.00 in 100 W/m2
11:40 46.8 °F 44.3 °F 29.25 in West 10.0 mph 18.0 mph 91 % 0.00 in 95 W/m2
11:44 46.8 °F 44.3 °F 29.24 in WSW 10.0 mph 16.0 mph 91 % 0.00 in 116 W/m2
11:46 46.8 °F 44.3 °F 29.24 in WSW 9.0 mph 15.0 mph 91 % 0.00 in 104 W/m2
11:51 46.9 °F 44.4 °F 29.25 in West 13.0 mph 18.0 mph 91 % 0.00 in 93 W/m2
11:55 46.9 °F 44.4 °F 29.25 in West 9.0 mph 14.0 mph 91 % 0.00 in 74 W/m2
11:58 46.9 °F 44.4 °F 29.25 in WSW 10.0 mph 19.0 mph 91 % 0.00 in 91 W/m2
12:02 47.1 °F 44.6 °F 29.25 in West 15.0 mph 23.0 mph 91 % 0.00 in 104 W/m2
12:03 47.3 °F 44.8 °F 29.25 in West 13.0 mph 22.0 mph 91 % 0.00 in 97 W/m2
12:08 47.5 °F 44.7 °F 29.26 in West 13.0 mph 20.0 mph 90 % 0.00 in 107 W/m2
12:09 47.7 °F 44.9 °F 29.26 in West 13.0 mph 20.0 mph 90 % 0.00 in 107 W/m2
12:12 47.8 °F 44.8 °F 29.25 in WSW 13.0 mph 21.0 mph 89 % 0.00 in 125 W/m2
12:15 47.8 °F 44.8 °F 29.26 in WSW 14.0 mph 23.0 mph 89 % 0.00 in 185 W/m2
12:20 48.4 °F 45.0 °F 29.25 in West 17.0 mph 24.0 mph 88 % 0.00 in 206 W/m2
12:21 48.4 °F 45.0 °F 29.25 in West 15.0 mph 24.0 mph 88 % 0.00 in 192 W/m2
12:26 48.9 °F 45.2 °F 29.26 in West 12.0 mph 19.0 mph 87 % 0.00 in 155 W/m2
12:29 49.1 °F 45.1 °F 29.26 in West 16.0 mph 24.0 mph 86 % 0.00 in 160 W/m2
12:31 49.3 °F 45.3 °F 29.26 in West 14.0 mph 21.0 mph 86 % 0.00 in 151 W/m2
12:36 49.5 °F 45.1 °F 29.26 in WSW 14.0 mph 27.0 mph 85 % 0.00 in 165 W/m2
12:37 49.5 °F 45.1 °F 29.26 in WSW 14.0 mph 27.0 mph 85 % 0.00 in 165 W/m2
12:42 49.6 °F 45.3 °F 29.26 in West 15.0 mph 28.0 mph 85 % 0.00 in 116 W/m2
12:43 49.6 °F 45.3 °F 29.26 in West 15.0 mph 23.0 mph 85 % 0.00 in 113 W/m2
12:46 49.8 °F 45.2 °F 29.26 in West 15.0 mph 26.0 mph 84 % 0.00 in 81 W/m2
12:48 49.8 °F 45.2 °F 29.26 in West 16.0 mph 24.0 mph 84 % 0.00 in 137 W/m2
12:53 49.8 °F 45.5 °F 29.26 in West 11.0 mph 23.0 mph 85 % 0.00 in 91 W/m2
12:54 49.8 °F 45.5 °F 29.26 in West 13.0 mph 23.0 mph 85 % 0.00 in 88 W/m2
12:56 49.8 °F 45.2 °F 29.26 in West 15.0 mph 24.0 mph 84 % 0.00 in 98 W/m2
12:59 49.8 °F 44.9 °F 29.27 in West 18.0 mph 30.0 mph 83 % 0.00 in 93 W/m2
13:03 50.2 °F 44.9 °F 29.27 in West 24.0 mph 39.0 mph 82 % 0.00 in 90 W/m2
13:07 50.2 °F 44.9 °F 29.27 in West 20.0 mph 34.0 mph 82 % 0.00 in 100 W/m2
13:12 50.0 °F 44.7 °F 29.27 in West 13.0 mph 21.0 mph 82 % 0.00 in 111 W/m2
13:17 50.0 °F 44.4 °F 29.27 in West 21.0 mph 31.0 mph 81 % 0.00 in 102 W/m2
13:18 50.0 °F 44.4 °F 29.27 in West 19.0 mph 31.0 mph 81 % 0.00 in 102 W/m2
13:23 50.0 °F 44.1 °F 29.27 in West 21.0 mph 34.0 mph 80 % 0.00 in 98 W/m2
13:28 49.8 °F 43.2 °F 29.28 in West 19.0 mph 32.0 mph 78 % 0.00 in 93 W/m2
13:29 49.8 °F 43.2 °F 29.28 in West 20.0 mph 32.0 mph 78 % 0.00 in 100 W/m2
13:33 49.8 °F 42.9 °F 29.28 in West 18.0 mph 27.0 mph 77 % 0.00 in 102 W/m2
13:35 49.8 °F 43.2 °F 29.28 in West 17.0 mph 27.0 mph 78 % 0.00 in 98 W/m2
13:37 49.8 °F 43.2 °F 29.28 in West 19.0 mph 28.0 mph 78 % 0.00 in 95 W/m2
13:41 49.8 °F 43.2 °F 29.28 in West 14.0 mph 23.0 mph 78 % 0.00 in 86 W/m2
13:45 49.8 °F 43.2 °F 29.29 in West 18.0 mph 26.0 mph 78 % 0.00 in 83 W/m2
13:48 49.8 °F 43.2 °F 29.29 in West 16.0 mph 27.0 mph 78 % 0.00 in 77 W/m2
13:53 49.6 °F 43.4 °F 29.29 in West 14.0 mph 26.0 mph 79 % 0.00 in 77 W/m2
13:58 49.6 °F 42.4 °F 29.30 in West 22.0 mph 36.0 mph 76 % 0.00 in 67 W/m2
14:00 49.6 °F 42.4 °F 29.30 in West 22.0 mph 36.0 mph 76 % 0.00 in 62 W/m2
14:05 49.6 °F 42.0 °F 29.30 in West 22.0 mph 29.0 mph 75 % 0.00 in 60 W/m2
14:10 49.6 °F 41.7 °F 29.30 in West 21.0 mph 36.0 mph 74 % 0.00 in 60 W/m2
14:11 49.6 °F 41.7 °F 29.30 in West 23.0 mph 36.0 mph 74 % 0.00 in 58 W/m2
14:16 49.5 °F 41.5 °F 29.30 in West 22.0 mph 30.0 mph 74 % 0.00 in 54 W/m2
14:21 49.3 °F 41.3 °F 29.30 in West 23.0 mph 37.0 mph 74 % 0.00 in 53 W/m2
14:23 49.3 °F 41.3 °F 29.30 in West 21.0 mph 27.0 mph 74 % 0.00 in 51 W/m2
14:28 49.3 °F 41.3 °F 29.31 in West 20.0 mph 32.0 mph 74 % 0.00 in 46 W/m2
14:29 49.3 °F 41.3 °F 29.31 in West 18.0 mph 27.0 mph 74 % 0.00 in 46 W/m2
14:34 49.1 °F 41.2 °F 29.31 in West 21.0 mph 32.0 mph 74 % 0.00 in 42 W/m2
14:38 48.9 °F 41.3 °F 29.31 in West 18.0 mph 29.0 mph 75 % 0.00 in 37 W/m2
14:39 48.9 °F 41.3 °F 29.31 in West 17.0 mph 29.0 mph 75 % 0.00 in 35 W/m2
14:44 48.9 °F 41.3 °F 29.31 in West 13.0 mph 26.0 mph 75 % 0.00 in 32 W/m2
14:46 48.7 °F 41.2 °F 29.32 in West 15.0 mph 26.0 mph 75 % 0.00 in 30 W/m2
14:51 48.7 °F 41.2 °F 29.32 in West 19.0 mph 27.0 mph 75 % 0.00 in 30 W/m2
14:52 48.7 °F 41.2 °F 29.32 in West 17.0 mph 26.0 mph 75 % 0.00 in 28 W/m2
14:54 48.7 °F 41.2 °F 29.32 in West 15.0 mph 24.0 mph 75 % 0.00 in 28 W/m2
14:59 48.6 °F 41.0 °F 29.33 in West 15.0 mph 24.0 mph 75 % 0.00 in 33 W/m2
15:04 48.6 °F 41.0 °F 29.33 in West 16.0 mph 24.0 mph 75 % 0.00 in 28 W/m2
15:05 48.7 °F 41.2 °F 29.33 in West 17.0 mph 24.0 mph 75 % 0.00 in 28 W/m2
15:10 48.6 °F 41.0 °F 29.34 in West 15.0 mph 26.0 mph 75 % 0.00 in 25 W/m2
15:11 48.6 °F 41.0 °F 29.34 in West 17.0 mph 26.0 mph 75 % 0.00 in 23 W/m2
15:16 48.6 °F 41.0 °F 29.34 in West 17.0 mph 27.0 mph 75 % 0.00 in 21 W/m2
15:17 48.6 °F 41.0 °F 29.34 in West 16.0 mph 27.0 mph 75 % 0.00 in 18 W/m2
15:21 48.6 °F 41.0 °F 29.34 in West 16.0 mph 23.0 mph 75 % 0.00 in 14 W/m2
15:26 48.4 °F 40.8 °F 29.34 in West 16.0 mph 27.0 mph 75 % 0.00 in 12 W/m2
15:27 48.4 °F 40.8 °F 29.34 in West 15.0 mph 27.0 mph 75 % 0.00 in 12 W/m2
15:30 48.4 °F 40.8 °F 29.35 in West 15.0 mph 23.0 mph 75 % 0.00 in 12 W/m2
15:33 48.4 °F 40.8 °F 29.35 in West 15.0 mph 26.0 mph 75 % 0.00 in 12 W/m2
15:37 48.4 °F 40.8 °F 29.35 in West 14.0 mph 24.0 mph 75 % 0.00 in 11 W/m2
15:42 48.2 °F 40.6 °F 29.35 in West 14.0 mph 20.0 mph 75 % 0.00 in 7 W/m2
15:43 48.2 °F 40.6 °F 29.36 in West 12.0 mph 19.0 mph 75 % 0.00 in 7 W/m2
15:44 48.2 °F 40.6 °F 29.36 in West 12.0 mph 22.0 mph 75 % 0.00 in 7 W/m2
15:50 48.0 °F 40.5 °F 29.36 in West 14.0 mph 21.0 mph 75 % 0.00 in 5 W/m2
15:54 48.0 °F 40.5 °F 29.36 in West 15.0 mph 24.0 mph 75 % 0.00 in 0 W/m2
15:59 48.0 °F 40.5 °F 29.37 in West 11.0 mph 22.0 mph 75 % 0.00 in 0 W/m2
16:00 48.0 °F 40.5 °F 29.37 in West 10.0 mph 14.0 mph 75 % 0.00 in 0 W/m2
16:05 47.8 °F 40.3 °F 29.37 in West 14.0 mph 21.0 mph 75 % 0.00 in 0 W/m2
16:09 47.8 °F 40.3 °F 29.38 in West 14.0 mph 21.0 mph 75 % 0.00 in 0 W/m2
16:11 47.8 °F 40.3 °F 29.38 in West 16.0 mph 26.0 mph 75 % 0.00 in 0 W/m2
16:15 47.8 °F 40.3 °F 29.38 in West 16.0 mph 24.0 mph 75 % 0.00 in 0 W/m2
16:20 47.8 °F 40.0 °F 29.38 in West 13.0 mph 21.0 mph 74 % 0.00 in 0 W/m2
16:25 47.8 °F 40.0 °F 29.39 in West 13.0 mph 23.0 mph 74 % 0.00 in 0 W/m2
16:28 47.8 °F 40.0 °F 29.39 in West 14.0 mph 22.0 mph 74 % 0.00 in 0 W/m2
16:33 47.8 °F 40.0 °F 29.39 in West 16.0 mph 24.0 mph 74 % 0.00 in 0 W/m2
16:38 47.8 °F 39.6 °F 29.39 in WSW 16.0 mph 26.0 mph 73 % 0.00 in 0 W/m2
16:41 47.8 °F 39.6 °F 29.39 in West 15.0 mph 25.0 mph 73 % 0.00 in 0 W/m2
16:46 47.8 °F 39.6 °F 29.39 in WSW 17.0 mph 27.0 mph 73 % 0.00 in 0 W/m2
16:48 47.7 °F 39.4 °F 29.39 in WSW 15.0 mph 23.0 mph 73 % 0.00 in 0 W/m2
16:53 47.7 °F 39.4 °F 29.39 in West 17.0 mph 23.0 mph 73 % 0.00 in 0 W/m2
16:55 47.7 °F 39.4 °F 29.40 in West 13.0 mph 21.0 mph 73 % 0.00 in 0 W/m2
16:59 47.5 °F 39.3 °F 29.40 in West 11.0 mph 20.0 mph 73 % 0.00 in 0 W/m2
17:00 47.5 °F 39.3 °F 29.40 in WSW 10.0 mph 16.0 mph 73 % 0.00 in 0 W/m2
17:03 47.5 °F 39.3 °F 29.40 in WSW 12.0 mph 20.0 mph 73 % 0.00 in 0 W/m2
17:08 47.3 °F 39.4 °F 29.40 in WSW 15.0 mph 21.0 mph 74 % 0.00 in 0 W/m2
17:13 47.1 °F 39.3 °F 29.40 in WSW 11.0 mph 15.0 mph 74 % 0.00 in 0 W/m2
17:18 47.1 °F 39.3 °F 29.40 in WSW 11.0 mph 16.0 mph 74 % 0.00 in 0 W/m2
17:20 47.1 °F 39.3 °F 29.40 in WSW 10.0 mph 15.0 mph 74 % 0.00 in 0 W/m2
17:23 46.9 °F 39.1 °F 29.40 in WSW 12.0 mph 21.0 mph 74 % 0.00 in 0 W/m2
17:26 46.9 °F 39.4 °F 29.40 in West 11.0 mph 20.0 mph 75 % 0.00 in 0 W/m2
17:31 46.8 °F 39.3 °F 29.40 in West 8.0 mph 14.0 mph 75 % 0.00 in 0 W/m2
17:32 46.8 °F 39.3 °F 29.40 in WSW 9.0 mph 19.0 mph 75 % 0.00 in 0 W/m2
17:34 46.8 °F 39.3 °F 29.40 in West 10.0 mph 19.0 mph 75 % 0.00 in 0 W/m2
17:38 46.8 °F 39.3 °F 29.40 in WSW 13.0 mph 22.0 mph 75 % 0.00 in 0 W/m2
17:39 46.8 °F 39.3 °F 29.40 in WSW 13.0 mph 22.0 mph 75 % 0.00 in 0 W/m2
17:44 46.8 °F 39.3 °F 29.41 in WSW 10.0 mph 24.0 mph 75 % 0.00 in 0 W/m2
17:45 46.6 °F 39.1 °F 29.40 in WSW 12.0 mph 24.0 mph 75 % 0.00 in 0 W/m2
17:50 46.6 °F 39.4 °F 29.41 in WSW 10.0 mph 16.0 mph 76 % 0.00 in 0 W/m2
17:53 46.6 °F 39.4 °F 29.41 in WSW 10.0 mph 15.0 mph 76 % 0.00 in 0 W/m2
17:58 46.6 °F 39.1 °F 29.42 in WSW 12.0 mph 20.0 mph 75 % 0.00 in 0 W/m2
18:00 46.6 °F 39.1 °F 29.42 in WSW 10.0 mph 18.0 mph 75 % 0.00 in 0 W/m2
18:05 46.6 °F 39.1 °F 29.42 in WSW 10.0 mph 16.0 mph 75 % 0.00 in 0 W/m2
18:06 46.6 °F 39.1 °F 29.42 in WSW 12.0 mph 23.0 mph 75 % 0.00 in 0 W/m2
18:10 46.6 °F 39.1 °F 29.42 in WSW 10.0 mph 19.0 mph 75 % 0.00 in 0 W/m2
18:11 46.6 °F 39.1 °F 29.42 in WSW 11.0 mph 19.0 mph 75 % 0.00 in 0 W/m2
18:16 46.6 °F 39.1 °F 29.41 in WSW 9.0 mph 14.0 mph 75 % 0.00 in 0 W/m2
18:18 46.6 °F 39.1 °F 29.42 in WSW 11.0 mph 20.0 mph 75 % 0.00 in 0 W/m2
18:23 46.6 °F 39.1 °F 29.42 in WSW 13.0 mph 20.0 mph 75 % 0.00 in 0 W/m2
18:24 46.6 °F 39.1 °F 29.42 in WSW 9.0 mph 16.0 mph 75 % 0.00 in 0 W/m2
18:26 46.6 °F 39.1 °F 29.42 in WSW 9.0 mph 15.0 mph 75 % 0.00 in 0 W/m2
18:31 46.6 °F 39.1 °F 29.44 in WSW 10.0 mph 16.0 mph 75 % 0.00 in 0 W/m2
18:32 46.6 °F 39.1 °F 29.43 in WSW 10.0 mph 14.0 mph 75 % 0.00 in 0 W/m2
18:38 46.6 °F 38.7 °F 29.43 in WSW 9.0 mph 19.0 mph 74 % 0.00 in 0 W/m2
18:42 46.6 °F 38.7 °F 29.44 in WSW 10.0 mph 19.0 mph 74 % 0.00 in 0 W/m2
18:47 46.6 °F 38.7 °F 29.43 in WSW 10.0 mph 16.0 mph 74 % 0.00 in 0 W/m2
18:48 46.8 °F 38.9 °F 29.43 in WSW 11.0 mph 19.0 mph 74 % 0.00 in 0 W/m2
18:53 46.8 °F 38.9 °F 29.43 in West 9.0 mph 15.0 mph 74 % 0.00 in 0 W/m2
18:54 46.8 °F 38.9 °F 29.43 in West 12.0 mph 23.0 mph 74 % 0.00 in 0 W/m2
18:58 46.9 °F 39.1 °F 29.44 in West 9.0 mph 15.0 mph 74 % 0.00 in 0 W/m2
18:59 46.9 °F 39.1 °F 29.43 in West 11.0 mph 16.0 mph 74 % 0.00 in 0 W/m2
19:04 46.9 °F 38.7 °F 29.43 in WSW 10.0 mph 21.0 mph 73 % 0.00 in 0 W/m2
19:06 46.9 °F 38.7 °F 29.43 in West 11.0 mph 18.0 mph 73 % 0.00 in 0 W/m2
19:11 46.9 °F 38.7 °F 29.43 in West 12.0 mph 20.0 mph 73 % 0.00 in 0 W/m2
19:16 46.9 °F 38.7 °F 29.43 in WSW 8.0 mph 14.0 mph 73 % 0.00 in 0 W/m2
19:19 46.9 °F 39.1 °F 29.44 in WSW 8.0 mph 13.0 mph 74 % 0.00 in 0 W/m2
19:20 46.9 °F 39.1 °F 29.44 in WSW 9.0 mph 15.0 mph 74 % 0.00 in 0 W/m2
19:24 46.9 °F 39.1 °F 29.43 in WSW 9.0 mph 13.0 mph 74 % 0.00 in 0 W/m2
19:29 46.9 °F 39.4 °F 29.43 in WSW 8.0 mph 12.0 mph 75 % 0.00 in 0 W/m2
19:34 46.8 °F 39.3 °F 29.43 in WSW 9.0 mph 16.0 mph 75 % 0.00 in 0 W/m2
19:35 46.8 °F 39.3 °F 29.43 in WSW 9.0 mph 16.0 mph 75 % 0.00 in 0 W/m2
19:37 46.8 °F 39.3 °F 29.43 in WSW 9.0 mph 13.0 mph 75 % 0.00 in 0 W/m2
19:42 46.9 °F 39.1 °F 29.43 in West 12.0 mph 20.0 mph 74 % 0.00 in 0 W/m2
19:44 46.9 °F 39.1 °F 29.43 in West 15.0 mph 22.0 mph 74 % 0.00 in 0 W/m2
19:46 46.9 °F 39.1 °F 29.43 in West 11.0 mph 22.0 mph 74 % 0.00 in 0 W/m2
19:50 47.1 °F 39.3 °F 29.43 in West 12.0 mph 20.0 mph 74 % 0.00 in 0 W/m2
19:55 47.3 °F 39.1 °F 29.43 in West 14.0 mph 27.0 mph 73 % 0.00 in 0 W/m2
20:00 47.3 °F 39.1 °F 29.43 in West 12.0 mph 20.0 mph 73 % 0.00 in 0 W/m2
20:02 47.5 °F 39.3 °F 29.43 in WSW 11.0 mph 19.0 mph 73 % 0.00 in 0 W/m2
20:03 47.5 °F 39.3 °F 29.42 in WSW 11.0 mph 19.0 mph 73 % 0.00 in 0 W/m2
20:08 47.5 °F 39.3 °F 29.42 in WSW 13.0 mph 21.0 mph 73 % 0.00 in 0 W/m2
20:13 47.5 °F 39.3 °F 29.42 in WSW 11.0 mph 18.0 mph 73 % 0.00 in 0 W/m2
20:17 47.5 °F 39.6 °F 29.42 in West 9.0 mph 14.0 mph 74 % 0.00 in 0 W/m2
20:22 47.5 °F 39.9 °F 29.42 in WSW 6.0 mph 11.0 mph 75 % 0.00 in 0 W/m2
20:23 47.3 °F 39.8 °F 29.42 in WSW 6.0 mph 9.0 mph 75 % 0.00 in 0 W/m2
20:28 47.1 °F 39.6 °F 29.42 in West 2.0 mph 5.0 mph 75 % 0.00 in 0 W/m2
20:29 47.3 °F 39.8 °F 29.42 in West 2.0 mph 5.0 mph 75 % 0.00 in 0 W/m2
20:34 47.1 °F 39.9 °F 29.42 in WSW 4.0 mph 9.0 mph 76 % 0.00 in 0 W/m2
20:36 47.1 °F 39.9 °F 29.42 in SW 3.0 mph 6.0 mph 76 % 0.00 in 0 W/m2
20:40 46.9 °F 39.8 °F 29.42 in SW 1.0 mph 6.0 mph 76 % 0.00 in 0 W/m2
20:45 47.1 °F 40.3 °F 29.41 in SSW 4.0 mph 9.0 mph 77 % 0.00 in 0 W/m2
20:50 47.1 °F 40.3 °F 29.41 in SW 4.0 mph 8.0 mph 77 % 0.00 in 0 W/m2
20:53 47.1 °F 40.3 °F 29.41 in WSW 2.0 mph 9.0 mph 77 % 0.00 in 0 W/m2
20:56 47.1 °F 40.3 °F 29.41 in SW 6.0 mph 10.0 mph 77 % 0.00 in 0 W/m2
21:01 47.1 °F 40.3 °F 29.41 in SW 5.0 mph 10.0 mph 77 % 0.00 in 0 W/m2
21:04 47.1 °F 40.6 °F 29.41 in SW 3.0 mph 10.0 mph 78 % 0.00 in 0 W/m2
21:09 47.1 °F 40.6 °F 29.41 in WSW 5.0 mph 13.0 mph 78 % 0.00 in 0 W/m2
21:11 47.1 °F 40.6 °F 29.41 in SW 4.0 mph 12.0 mph 78 % 0.00 in 0 W/m2
21:15 47.1 °F 40.6 °F 29.41 in WSW 8.0 mph 15.0 mph 78 % 0.00 in 0 W/m2
21:17 47.1 °F 40.9 °F 29.41 in WSW 9.0 mph 15.0 mph 79 % 0.00 in 0 W/m2
21:22 47.1 °F 40.9 °F 29.41 in WSW 8.0 mph 11.0 mph 79 % 0.00 in 0 W/m2
21:26 46.9 °F 40.8 °F 29.40 in WSW 9.0 mph 13.0 mph 79 % 0.00 in 0 W/m2
21:29 46.9 °F 41.1 °F 29.40 in WSW 8.0 mph 15.0 mph 80 % 0.00 in 0 W/m2
21:31 47.1 °F 41.3 °F 29.40 in WSW 10.0 mph 15.0 mph 80 % 0.00 in 0 W/m2
21:36 47.1 °F 41.3 °F 29.40 in WSW 5.0 mph 10.0 mph 80 % 0.00 in 0 W/m2
21:37 47.1 °F 41.3 °F 29.40 in WSW 6.0 mph 10.0 mph 80 % 0.00 in 0 W/m2
21:42 46.9 °F 41.1 °F 29.40 in SW 7.0 mph 11.0 mph 80 % 0.00 in 0 W/m2
21:44 46.9 °F 41.1 °F 29.41 in WSW 7.0 mph 13.0 mph 80 % 0.00 in 0 W/m2
21:47 46.9 °F 41.1 °F 29.41 in SW 7.0 mph 12.0 mph 80 % 0.00 in 0 W/m2
21:51 46.9 °F 41.1 °F 29.40 in SW 7.0 mph 11.0 mph 80 % 0.00 in 0 W/m2
21:56 46.9 °F 41.1 °F 29.40 in SW 6.0 mph 11.0 mph 80 % 0.00 in 0 W/m2
21:59 46.9 °F 41.1 °F 29.40 in SW 6.0 mph 12.0 mph 80 % 0.00 in 0 W/m2
22:05 46.9 °F 41.4 °F 29.40 in SW 3.0 mph 8.0 mph 81 % 0.00 in 0 W/m2
22:06 46.9 °F 41.4 °F 29.40 in SW 4.0 mph 9.0 mph 81 % 0.00 in 0 W/m2
22:11 46.9 °F 41.4 °F 29.40 in WSW 5.0 mph 9.0 mph 81 % 0.00 in 0 W/m2
22:13 46.9 °F 41.4 °F 29.40 in SW 2.0 mph 7.0 mph 81 % 0.00 in 0 W/m2
22:17 46.9 °F 41.4 °F 29.40 in SW 5.0 mph 8.0 mph 81 % 0.00 in 0 W/m2
22:20 46.9 °F 41.4 °F 29.40 in WSW 3.0 mph 8.0 mph 81 % 0.00 in 0 W/m2
22:25 46.9 °F 41.7 °F 29.39 in WSW 2.0 mph 4.0 mph 82 % 0.00 in 0 W/m2
22:27 46.9 °F 41.7 °F 29.39 in SW 1.0 mph 3.0 mph 82 % 0.00 in 0 W/m2
22:28 46.9 °F 41.7 °F 29.39 in SW 2.0 mph 8.0 mph 82 % 0.00 in 0 W/m2
22:32 46.8 °F 41.6 °F 29.38 in SW 4.0 mph 10.0 mph 82 % 0.00 in 0 W/m2
22:37 46.9 °F 41.4 °F 29.38 in SW 4.0 mph 9.0 mph 81 % 0.00 in 0 W/m2
22:40 46.9 °F 41.4 °F 29.38 in WSW 5.0 mph 10.0 mph 81 % 0.00 in 0 W/m2
22:45 46.9 °F 41.4 °F 29.38 in SW 6.0 mph 11.0 mph 81 % 0.00 in 0 W/m2
22:47 46.9 °F 41.4 °F 29.38 in WSW 3.0 mph 6.0 mph 81 % 0.00 in 0 W/m2
22:52 46.9 °F 41.4 °F 29.38 in SSW 4.0 mph 8.0 mph 81 % 0.00 in 0 W/m2
22:54 46.9 °F 41.7 °F 29.38 in SSW 4.0 mph 7.0 mph 82 % 0.00 in 0 W/m2
22:56 46.9 °F 41.7 °F 29.38 in SSW 4.0 mph 7.0 mph 82 % 0.00 in 0 W/m2
23:01 46.9 °F 41.7 °F 29.38 in South 3.0 mph 6.0 mph 82 % 0.00 in 0 W/m2
23:06 46.9 °F 41.7 °F 29.38 in SE 4.0 mph 6.0 mph 82 % 0.00 in 0 W/m2
23:07 46.9 °F 41.7 °F 29.38 in SE 4.0 mph 6.0 mph 82 % 0.00 in 0 W/m2
23:11 46.9 °F 41.7 °F 29.38 in SSE 3.0 mph 7.0 mph 82 % 0.00 in 0 W/m2
23:15 46.9 °F 41.7 °F 29.37 in SSE 2.0 mph 6.0 mph 82 % 0.00 in 0 W/m2
23:17 46.9 °F 41.7 °F 29.37 in SSE 5.0 mph 8.0 mph 82 % 0.00 in 0 W/m2
23:22 46.9 °F 41.7 °F 29.36 in South 3.0 mph 7.0 mph 82 % 0.00 in 0 W/m2
23:23 46.9 °F 41.7 °F 29.36 in South 4.0 mph 10.0 mph 82 % 0.00 in 0 W/m2
23:28 46.9 °F 41.7 °F 29.35 in SSE 7.0 mph 11.0 mph 82 % 0.00 in 0 W/m2
23:33 46.9 °F 41.7 °F 29.35 in SSE 5.0 mph 9.0 mph 82 % 0.00 in 0 W/m2
23:38 46.8 °F 41.6 °F 29.35 in South 5.0 mph 10.0 mph 82 % 0.00 in 0 W/m2
23:40 46.8 °F 41.6 °F 29.34 in SSE 7.0 mph 10.0 mph 82 % 0.00 in 0 W/m2
23:44 46.8 °F 41.6 °F 29.34 in SSE 7.0 mph 12.0 mph 82 % 0.00 in 0 W/m2
23:46 46.8 °F 41.6 °F 29.34 in SSE 7.0 mph 11.0 mph 82 % 0.00 in 0 W/m2
23:51 46.8 °F 41.6 °F 29.34 in South 5.0 mph 8.0 mph 82 % 0.00 in 0 W/m2
23:52 46.8 °F 41.6 °F 29.34 in South 4.0 mph 8.0 mph 82 % 0.00 in 0 W/m2
23:58 46.8 °F 41.9 °F 29.33 in South 5.0 mph 8.0 mph 83 % 0.00 in 0 W/m2
23:59 46.6 °F 41.7 °F 29.33 in South 4.0 mph 7.0 mph 83 % 0.00 in 0 W/m2
Delerius-Weather
Compliments of Weather Underground - 3 mb

Data updates at regular intervals.